Cozumel International Airport
MMCZ : rendu visible

Aérodrome :











RETROUVEZ-NOUS SUR...

 
LOGIN :

S'inscrire | Disclaimer

   EN    FR    IT 

 









Légende :    VFR   VFR Marginal   IFR   IFR Intensif   IFR Très Intensif
Visi : 
Plafond : 
>= 8 km
>= 3000ft
5 à 8 km
1000 à 3000 ft
1500m à 5 km
500 à 1000 ft
800 à 1500m
200 à 500 ft
< 800m
< 200 ft
Symboles :   Orages  Brouillard  Fortes neiges  Fortes précipitations  Vent > 20 kt






- Altitude de l'aérodrome : 15 ft
- Code IATA : CZM


MMCZ - Cozumel International

DERNIER METAR :
  • 110444Z 11004KT 7SM SCT015 23/22 A3003 RMK 8/500

METARs EXPIRÉS :
  • 110344Z 00000KT 7SM SCT015 23/22 A3004 RMK 8/500
  • 110243Z 11003KT 7SM SKC 23/22 A3003 RMK SLP173 52017 913 SC

TAF TAF MMCZ
Valide du 11 à 06h jusqu'au 12 à 12h UTC


110450Z 1106/1212 12005KT P6SM SCT015
FM111600 12010KT P6SM SCT015
PROB40 1121/1201 5SM RA BKN015
FM120300 08005KT P6SM SCT015



MET'MAP, la Météo Aéronautique d'un coup d'oeil ! - Copyright ORBIFLY Décembre 2007 - Disclaimer

ORBIFLY MET'MAP TEAM :

Programmation & Développement : Alexandra Zaïnal
Sur une idée originale de : Baudouin d'Aumeries
Assistance à la programmation : Marc-Olivier Méhu
Soutien technique & logistique : Manuel Goepfert

Contact : metmap@orbifly.com




SOURCES & CREDITS :

   NOAA       Earth
Advisory